Temp: 10.9°C   Baro: 992.6mb
  Wind: 2.9mph   Dir: SSE (157°)
  Rain: 1.4mm (1.8mm/hr)
  Solar: 0W/m2  Hum: 79%
 
Bath Spa Weather Station Historical Data
Daily Summary for August 15, 2019 Units:  Both    English   Metric
Daily Weekly Monthly Yearly Custom
  High: Low: Average:
Temperature: 62.2 °F /  16.8 °C 50.4 °F /  10.2 °C 53.8 °F /  12.1 °C
Dew Point: 55.2 °F /  12.9 °C 48.4 °F /  9.1 °C 50.7 °F /  10.4 °C
Humidity: 96% 69.8% 90%
Wind Speed: 10.4mph /  16.7km/h - 1.4mph /  2.3km/h
Wind Gust: 15mph /  24.1km/h - -
Wind- - WSW
Pressure: 29.66 in /  1004.3 hPa 29.58 in /  1001.6 hPa -
Precipitation: 0.02 in /  0.51 mm    
Historical Graphs
 
 
Tabular Data for August 15, 2019
Time Temperature Dew Point Pressure Wind Wind Speed Wind Gust Humidity Rainfall Rate (Hourly) solar
00:04 50.7 °F /  10.4 °C 49.4 °F /  9.7 °C 29.59in /  1001.9hPa WNW 0.6mph /  1km/h 3mph /  4.8km/h 95.2% 0.00in /  0mm 0 W/m2
00:09 50.7 °F /  10.4 °C 49.3 °F /  9.6 °C 29.59in /  1001.9hPa WNW 0.5mph /  0.8km/h 3mph /  4.8km/h 95% 0.00in /  0mm 0 W/m2
00:14 50.7 °F /  10.4 °C 49.4 °F /  9.7 °C 29.59in /  1001.9hPa WNW 0.5mph /  0.8km/h 3mph /  4.8km/h 95.3% 0.00in /  0mm 0 W/m2
00:19 50.7 °F /  10.4 °C 49.5 °F /  9.7 °C 29.59in /  1001.9hPa WNW 1.5mph /  2.4km/h 4mph /  6.4km/h 95.5% 0.00in /  0mm 0 W/m2
00:24 50.7 °F /  10.4 °C 49.6 °F /  9.8 °C 29.59in /  1001.9hPa WNW 0.4mph /  0.6km/h 4mph /  6.4km/h 96% 0.00in /  0mm 0 W/m2
00:29 50.7 °F /  10.4 °C 49.5 °F /  9.7 °C 29.59in /  1001.9hPa WNW 1mph /  1.6km/h 3mph /  4.8km/h 95.6% 0.00in /  0mm 0 W/m2
00:34 50.7 °F /  10.4 °C 49.6 °F /  9.8 °C 29.59in /  1001.9hPa WNW 1.1mph /  1.8km/h 4mph /  6.4km/h 95.8% 0.00in /  0mm 0 W/m2
00:39 50.7 °F /  10.4 °C 49.5 °F /  9.7 °C 29.59in /  1001.9hPa WNW 0.7mph /  1.1km/h 3mph /  4.8km/h 95.8% 0.00in /  0mm 0 W/m2
00:44 50.7 °F /  10.4 °C 49.6 °F /  9.8 °C 29.59in /  1001.9hPa WNW 0.5mph /  0.8km/h 2mph /  3.2km/h 96% 0.00in /  0mm 0 W/m2
00:49 50.7 °F /  10.4 °C 49.6 °F /  9.8 °C 29.59in /  1001.9hPa WNW 1.2mph /  1.9km/h 3mph /  4.8km/h 96% 0.00in /  0mm 0 W/m2
00:54 50.7 °F /  10.4 °C 49.6 °F /  9.8 °C 29.58in /  1001.6hPa WNW 0.9mph /  1.4km/h 4mph /  6.4km/h 96% 0.00in /  0mm 0 W/m2
00:59 50.5 °F /  10.3 °C 49.5 °F /  9.7 °C 29.58in /  1001.6hPa WNW 0.2mph /  0.3km/h 4mph /  6.4km/h 96% 0.00in /  0mm 0 W/m2
01:04 50.5 °F /  10.3 °C 49.4 °F /  9.7 °C 29.58in /  1001.6hPa Calm     95.7% 0.00in /  0mm 0 W/m2
01:09 50.5 °F /  10.3 °C 49.4 °F /  9.7 °C 29.58in /  1001.6hPa WNW 0.2mph /  0.3km/h 1mph /  1.6km/h 95.8% 0.00in /  0mm 0 W/m2
01:14 50.5 °F /  10.3 °C 49.3 °F /  9.6 °C 29.59in /  1001.9hPa Calm   1mph /  1.6km/h 95.5% 0.00in /  0mm 0 W/m2
01:19 50.5 °F /  10.3 °C 49.1 °F /  9.5 °C 29.59in /  1001.9hPa Calm   1mph /  1.6km/h 95% 0.00in /  0mm 0 W/m2
01:24 50.5 °F /  10.3 °C 49.1 °F /  9.5 °C 29.59in /  1001.9hPa WNW 0.1mph /  0.2km/h 1mph /  1.6km/h 95% 0.00in /  0mm 0 W/m2
01:29 50.4 °F /  10.2 °C 49 °F /  9.4 °C 29.60in /  1002.3hPa Calm   1mph /  1.6km/h 95% 0.00in /  0mm 0 W/m2
01:34 50.4 °F /  10.2 °C 49 °F /  9.4 °C 29.60in /  1002.3hPa Calm   1mph /  1.6km/h 95% 0.00in /  0mm 0 W/m2
01:39 50.5 °F /  10.3 °C 49 °F /  9.4 °C 29.60in /  1002.3hPa Calm     95% 0.00in /  0mm 0 W/m2
01:44 50.5 °F /  10.3 °C 49.1 °F /  9.5 °C 29.60in /  1002.3hPa Calm     95% 0.00in /  0mm 0 W/m2
01:49 50.5 °F /  10.3 °C 49.1 °F /  9.5 °C 29.60in /  1002.3hPa WNW 0.1mph /  0.2km/h 1mph /  1.6km/h 95% 0.00in /  0mm 0 W/m2
01:54 50.5 °F /  10.3 °C 49.4 °F /  9.7 °C 29.60in /  1002.3hPa Calm   1mph /  1.6km/h 95.7% 0.00in /  0mm 0 W/m2
01:59 50.5 °F /  10.3 °C 49.4 °F /  9.7 °C 29.60in /  1002.3hPa Calm     95.9% 0.00in /  0mm 0 W/m2
02:04 50.5 °F /  10.3 °C 49.5 °F /  9.7 °C 29.60in /  1002.3hPa Calm     96% 0.00in /  0mm 0 W/m2
02:09 50.6 °F /  10.3 °C 49.6 °F /  9.8 °C 29.60in /  1002.3hPa Calm     96% 0.00in /  0mm 0 W/m2
02:14 50.7 °F /  10.4 °C 49.6 °F /  9.8 °C 29.60in /  1002.3hPa Calm     96% 0.00in /  0mm 0 W/m2
02:19 50.7 °F /  10.4 °C 49.6 °F /  9.8 °C 29.60in /  1002.3hPa Calm     96% 0.00in /  0mm 0 W/m2
02:24 50.7 °F /  10.4 °C 49.6 °F /  9.8 °C 29.60in /  1002.3hPa Calm     96% 0.00in /  0mm 0 W/m2
02:29 50.7 °F /  10.4 °C 49.6 °F /  9.8 °C 29.60in /  1002.3hPa Calm     96% 0.00in /  0mm 0 W/m2
02:34 50.7 °F /  10.4 °C 49.6 °F /  9.8 °C 29.60in /  1002.3hPa Calm     96% 0.00in /  0mm 0 W/m2
02:39 50.7 °F /  10.4 °C 49.6 °F /  9.8 °C 29.60in /  1002.3hPa Calm     96% 0.00in /  0mm 0 W/m2
02:44 50.7 °F /  10.4 °C 49.6 °F /  9.8 °C 29.60in /  1002.3hPa Calm     96% 0.00in /  0mm 0 W/m2
02:49 50.7 °F /  10.4 °C 49.6 °F /  9.8 °C 29.60in /  1002.3hPa Calm     96% 0.00in /  0mm 0 W/m2
02:54 50.7 °F /  10.4 °C 49.6 °F /  9.8 °C 29.60in /  1002.3hPa Calm     96% 0.00in /  0mm 0 W/m2
02:59 50.7 °F /  10.4 °C 49.6 °F /  9.8 °C 29.60in /  1002.3hPa Calm     96% 0.00in /  0mm 0 W/m2
03:04 50.7 °F /  10.4 °C 49.6 °F /  9.8 °C 29.61in /  1002.6hPa Calm   1mph /  1.6km/h 96% 0.00in /  0mm 0 W/m2
03:09 50.7 °F /  10.4 °C 49.6 °F /  9.8 °C 29.61in /  1002.6hPa Calm     96% 0.00in /  0mm 0 W/m2
03:14 50.7 °F /  10.4 °C 49.6 °F /  9.8 °C 29.61in /  1002.6hPa Calm     96% 0.00in /  0mm 0 W/m2
03:19 50.7 °F /  10.4 °C 49.6 °F /  9.8 °C 29.61in /  1002.6hPa Calm     96% 0.00in /  0mm 0 W/m2
03:24 50.7 °F /  10.4 °C 49.6 °F /  9.8 °C 29.60in /  1002.3hPa Calm     96% 0.00in /  0mm 0 W/m2
03:29 50.7 °F /  10.4 °C 49.6 °F /  9.8 °C 29.60in /  1002.3hPa WNW 0.2mph /  0.3km/h 1mph /  1.6km/h 96% 0.00in /  0mm 0 W/m2
03:34 50.7 °F /  10.4 °C 49.6 °F /  9.8 °C 29.60in /  1002.3hPa Calm   1mph /  1.6km/h 96% 0.00in /  0mm 0 W/m2
03:39 50.8 °F /  10.4 °C 49.7 °F /  9.8 °C 29.60in /  1002.3hPa WNW 0.5mph /  0.8km/h 2mph /  3.2km/h 96% 0.00in /  0mm 0 W/m2
03:44 50.7 °F /  10.4 °C 49.6 °F /  9.8 °C 29.59in /  1001.9hPa Calm   1mph /  1.6km/h 96% 0.00in /  0mm 0 W/m2
03:49 50.7 °F /  10.4 °C 49.6 °F /  9.8 °C 29.59in /  1001.9hPa WNW 0.2mph /  0.3km/h 1mph /  1.6km/h 96% 0.00in /  0mm 0 W/m2
03:54 50.7 °F /  10.4 °C 49.6 °F /  9.8 °C 29.59in /  1001.9hPa Calm   1mph /  1.6km/h 96% 0.00in /  0mm 0 W/m2
03:59 50.7 °F /  10.4 °C 49.6 °F /  9.8 °C 29.59in /  1001.9hPa Calm     96% 0.00in /  0mm 0 W/m2
04:04 50.6 °F /  10.3 °C 49.6 °F /  9.8 °C 29.59in /  1001.9hPa Calm     96% 0.00in /  0mm 0 W/m2
04:09 50.6 °F /  10.3 °C 49.5 °F /  9.7 °C 29.59in /  1001.9hPa Calm     96% 0.00in /  0mm 0 W/m2
04:14 50.5 °F /  10.3 °C 49.5 °F /  9.7 °C 29.59in /  1001.9hPa Calm     96% 0.00in /  0mm 0 W/m2
04:19 50.5 °F /  10.3 °C 49.5 °F /  9.7 °C 29.59in /  1001.9hPa Calm     96% 0.00in /  0mm 0 W/m2
04:24 50.5 °F /  10.3 °C 49.5 °F /  9.7 °C 29.59in /  1001.9hPa Calm     96% 0.00in /  0mm 0 W/m2
04:29 50.5 °F /  10.3 °C 49.4 °F /  9.7 °C 29.59in /  1001.9hPa Calm     96% 0.00in /  0mm 0 W/m2
04:34 50.4 °F /  10.2 °C 49.4 °F /  9.7 °C 29.59in /  1001.9hPa Calm     96% 0.00in /  0mm 0 W/m2
04:39 50.5 °F /  10.3 °C 49.5 °F /  9.7 °C 29.59in /  1001.9hPa Calm     96% 0.00in /  0mm 0 W/m2
04:44 50.5 °F /  10.3 °C 49.5 °F /  9.7 °C 29.59in /  1001.9hPa Calm     96% 0.00in /  0mm 0 W/m2
04:49 50.5 °F /  10.3 °C 49.4 °F /  9.7 °C 29.60in /  1002.3hPa Calm     96% 0.00in /  0mm 0 W/m2
04:54 50.5 °F /  10.3 °C 49.5 °F /  9.7 °C 29.60in /  1002.3hPa Calm     96% 0.00in /  0mm 0 W/m2
04:59 50.5 °F /  10.3 °C 49.5 °F /  9.7 °C 29.60in /  1002.3hPa WNW 0.4mph /  0.6km/h 2mph /  3.2km/h 96% 0.00in /  0mm 0 W/m2
05:04 50.5 °F /  10.3 °C 49.5 °F /  9.7 °C 29.60in /  1002.3hPa Calm     96% 0.00in /  0mm 0 W/m2
05:09 50.5 °F /  10.3 °C 49.5 °F /  9.7 °C 29.60in /  1002.3hPa Calm     96% 0.00in /  0mm 0 W/m2
05:14 50.6 °F /  10.3 °C 49.5 °F /  9.7 °C 29.60in /  1002.3hPa Calm     96% 0.00in /  0mm 0 W/m2
05:19 50.7 °F /  10.4 °C 49.6 °F /  9.8 °C 29.60in /  1002.3hPa Calm     96% 0.00in /  0mm 0 W/m2
05:24 50.7 °F /  10.4 °C 49.6 °F /  9.8 °C 29.60in /  1002.3hPa Calm     96% 0.00in /  0mm 0 W/m2
05:29 50.7 °F /  10.4 °C 49.6 °F /  9.8 °C 29.60in /  1002.3hPa Calm     96% 0.00in /  0mm 0 W/m2
05:34 50.7 °F /  10.4 °C 49.6 °F /  9.8 °C 29.60in /  1002.3hPa Calm     96% 0.00in /  0mm 0 W/m2
05:39 50.7 °F /  10.4 °C 49.6 °F /  9.8 °C 29.60in /  1002.3hPa Calm     96% 0.00in /  0mm 0 W/m2
05:44 50.7 °F /  10.4 °C 49.6 °F /  9.8 °C 29.59in /  1001.9hPa Calm     96% 0.00in /  0mm 0 W/m2
05:49 50.7 °F /  10.4 °C 49.6 °F /  9.8 °C 29.59in /  1001.9hPa Calm     96% 0.00in /  0mm 0 W/m2
05:54 50.7 °F /  10.4 °C 49.6 °F /  9.8 °C 29.59in /  1001.9hPa Calm     96% 0.00in /  0mm 0 W/m2
05:59 50.7 °F /  10.4 °C 49.6 °F /  9.8 °C 29.59in /  1001.9hPa Calm     96% 0.00in /  0mm 0 W/m2
06:04 50.7 °F /  10.4 °C 49.6 °F /  9.8 °C 29.59in /  1001.9hPa Calm     96% 0.00in /  0mm 0 W/m2
06:09 50.7 °F /  10.4 °C 49.6 °F /  9.8 °C 29.59in /  1001.9hPa Calm     96% 0.00in /  0mm 0 W/m2
06:14 50.7 °F /  10.4 °C 49.6 °F /  9.8 °C 29.60in /  1002.3hPa Calm     96% 0.00in /  0mm 0 W/m2
06:19 50.7 °F /  10.4 °C 49.6 °F /  9.8 °C 29.60in /  1002.3hPa Calm     96% 0.00in /  0mm 0 W/m2
06:24 50.7 °F /  10.4 °C 49.6 °F /  9.8 °C 29.60in /  1002.3hPa Calm     96% 0.00in /  0mm 0 W/m2
06:29 50.7 °F /  10.4 °C 49.6 °F /  9.8 °C 29.60in /  1002.3hPa Calm     96% 0.00in /  0mm 0 W/m2
06:34 50.7 °F /  10.4 °C 49.6 °F /  9.8 °C 29.60in /  1002.3hPa Calm     96% 0.00in /  0mm 0 W/m2
06:39 50.7 °F /  10.4 °C 49.6 °F /  9.8 °C 29.60in /  1002.3hPa Calm     96% 0.00in /  0mm 0 W/m2
06:44 50.8 °F /  10.4 °C 49.7 °F /  9.8 °C 29.60in /  1002.3hPa Calm     96% 0.00in /  0mm 0 W/m2
06:49 50.9 °F /  10.5 °C 49.8 °F /  9.9 °C 29.60in /  1002.3hPa Calm     96% 0.00in /  0mm 0 W/m2
06:54 50.9 °F /  10.5 °C 49.8 °F /  9.9 °C 29.61in /  1002.6hPa Calm     96% 0.00in /  0mm 0 W/m2
06:59 50.9 °F /  10.5 °C 49.8 °F /  9.9 °C 29.61in /  1002.6hPa Calm     96% 0.00in /  0mm 0 W/m2
07:04 50.9 °F /  10.5 °C 49.8 °F /  9.9 °C 29.61in /  1002.6hPa Calm     96% 0.00in /  0mm 0 W/m2
07:09 50.9 °F /  10.5 °C 49.8 °F /  9.9 °C 29.61in /  1002.6hPa Calm     96% 0.00in /  0mm 0 W/m2
07:14 50.9 °F /  10.5 °C 49.8 °F /  9.9 °C 29.61in /  1002.6hPa Calm     96% 0.01in /  0.25mm 0 W/m2
07:19 50.9 °F /  10.5 °C 49.8 °F /  9.9 °C 29.61in /  1002.6hPa WNW 0.2mph /  0.3km/h 1mph /  1.6km/h 96% 0.01in /  0.25mm 0 W/m2
07:24 51 °F /  10.6 °C 49.9 °F /  9.9 °C 29.61in /  1002.6hPa Calm     96% 0.01in /  0.25mm 0 W/m2
07:29 50.9 °F /  10.5 °C 49.8 °F /  9.9 °C 29.62in /  1002.9hPa Calm     96% 0.01in /  0.25mm 0 W/m2
07:34 50.9 °F /  10.5 °C 49.8 °F /  9.9 °C 29.62in /  1002.9hPa Calm     96% 0.01in /  0.25mm 0 W/m2
07:39 50.9 °F /  10.5 °C 49.8 °F /  9.9 °C 29.62in /  1002.9hPa Calm     96% 0.01in /  0.25mm 0 W/m2
07:44 50.9 °F /  10.5 °C 49.8 °F /  9.9 °C 29.62in /  1002.9hPa Calm     96% 0.01in /  0.25mm 5 W/m2
07:49 51 °F /  10.6 °C 49.9 °F /  9.9 °C 29.62in /  1002.9hPa Calm     96% 0.01in /  0.25mm 9 W/m2
07:54 51.1 °F /  10.6 °C 50 °F /  10 °C 29.62in /  1002.9hPa Calm     96% 0.02in /  0.51mm 9 W/m2
07:59 51.1 °F /  10.6 °C 50 °F /  10 °C 29.62in /  1002.9hPa Calm     96% 0.02in /  0.51mm 9 W/m2
08:04 51.1 °F /  10.6 °C 50 °F /  10 °C 29.62in /  1002.9hPa Calm     96% 0.02in /  0.51mm 12 W/m2
08:09 51.1 °F /  10.6 °C 50 °F /  10 °C 29.62in /  1002.9hPa Calm     96% 0.02in /  0.51mm 12 W/m2
08:14 51.1 °F /  10.6 °C 50 °F /  10 °C 29.62in /  1002.9hPa Calm     96% 0.01in /  0.25mm 12 W/m2
08:19 51.1 °F /  10.6 °C 50 °F /  10 °C 29.62in /  1002.9hPa Calm     96% 0.01in /  0.25mm 12 W/m2
08:24 51.1 °F /  10.6 °C 50 °F /  10 °C 29.62in /  1002.9hPa WNW 0.1mph /  0.2km/h 1mph /  1.6km/h 96% 0.01in /  0.25mm 23 W/m2
08:29 51.3 °F /  10.7 °C 50.2 °F /  10.1 °C 29.62in /  1002.9hPa Calm     96% 0.01in /  0.25mm 23 W/m2
08:34 51.3 °F /  10.7 °C 50.2 °F /  10.1 °C 29.62in /  1002.9hPa Calm     96% 0.01in /  0.25mm 37 W/m2
08:39 51.3 °F /  10.7 °C 50.2 °F /  10.1 °C 29.62in /  1002.9hPa WNW 0.2mph /  0.3km/h 1mph /  1.6km/h 96% 0.01in /  0.25mm 39 W/m2
08:44 51.2 °F /  10.7 °C 50.1 °F /  10.1 °C 29.62in /  1002.9hPa Calm     96% 0.01in /  0.25mm 54 W/m2
08:49 51.1 °F /  10.6 °C 50 °F /  10 °C 29.62in /  1002.9hPa WNW 0.4mph /  0.6km/h 3mph /  4.8km/h 96% 0.01in /  0.25mm 54 W/m2
08:54 51.1 °F /  10.6 °C 50 °F /  10 °C 29.62in /  1002.9hPa Calm   3mph /  4.8km/h 96% 0.01in /  0.25mm 39 W/m2
08:59 51.3 °F /  10.7 °C 50.2 °F /  10.1 °C 29.62in /  1002.9hPa Calm     96% 0.00in /  0mm 40 W/m2
09:04 51.3 °F /  10.7 °C 50.2 °F /  10.1 °C 29.62in /  1002.9hPa WNW 0.3mph /  0.5km/h 2mph /  3.2km/h 96% 0.00in /  0mm 62 W/m2
09:09 51.4 °F /  10.8 °C 50.3 °F /  10.2 °C 29.63in /  1003.3hPa WNW 0.2mph /  0.3km/h 2mph /  3.2km/h 96% 0.00in /  0mm 63 W/m2
09:14 51.3 °F /  10.7 °C 50.3 °F /  10.2 °C 29.63in /  1003.3hPa WNW 0.3mph /  0.5km/h 2mph /  3.2km/h 96% 0.00in /  0mm 51 W/m2
09:19 51.3 °F /  10.7 °C 50.3 °F /  10.2 °C 29.63in /  1003.3hPa WNW 0.1mph /  0.2km/h 2mph /  3.2km/h 96% 0.00in /  0mm 63 W/m2
09:24 51.4 °F /  10.8 °C 50.4 °F /  10.2 °C 29.63in /  1003.3hPa WNW 0.5mph /  0.8km/h 2mph /  3.2km/h 96% 0.00in /  0mm 62 W/m2
09:29 51.4 °F /  10.8 °C 50.4 °F /  10.2 °C 29.63in /  1003.3hPa WNW 0.6mph /  1km/h 2mph /  3.2km/h 96% 0.00in /  0mm 67 W/m2
09:34 51.4 °F /  10.8 °C 50.4 °F /  10.2 °C 29.63in /  1003.3hPa WNW 0.3mph /  0.5km/h 2mph /  3.2km/h 96% 0.00in /  0mm 72 W/m2
09:39 51.6 °F /  10.9 °C 50.5 °F /  10.3 °C 29.63in /  1003.3hPa West 0.4mph /  0.6km/h 2mph /  3.2km/h 96% 0.00in /  0mm 84 W/m2
09:44 51.6 °F /  10.9 °C 50.5 °F /  10.3 °C 29.63in /  1003.3hPa West 1.8mph /  2.9km/h 4mph /  6.4km/h 96% 0.00in /  0mm 86 W/m2
09:49 51.6 °F /  10.9 °C 50.5 °F /  10.3 °C 29.63in /  1003.3hPa West 1.9mph /  3.1km/h 5mph /  8km/h 96% 0.00in /  0mm 86 W/m2
09:54 51.9 °F /  11.1 °C 50.8 °F /  10.4 °C 29.63in /  1003.3hPa West 0.6mph /  1km/h 3mph /  4.8km/h 96% 0.00in /  0mm 91 W/m2
09:59 52 °F /  11.1 °C 50.9 °F /  10.5 °C 29.63in /  1003.3hPa West 0.1mph /  0.2km/h 2mph /  3.2km/h 96% 0.00in /  0mm 98 W/m2
10:04 52.2 °F /  11.2 °C 51.1 °F /  10.6 °C 29.63in /  1003.3hPa West 0.9mph /  1.4km/h 3mph /  4.8km/h 96% 0.00in /  0mm 109 W/m2
10:09 52.3 °F /  11.3 °C 51.3 °F /  10.7 °C 29.63in /  1003.3hPa West 1.6mph /  2.6km/h 4mph /  6.4km/h 96% 0.00in /  0mm 128 W/m2
10:14 52.3 °F /  11.3 °C 51.3 °F /  10.7 °C 29.63in /  1003.3hPa SW 2.2mph /  3.5km/h 5mph /  8km/h 96% 0.00in /  0mm 132 W/m2
10:19 52.5 °F /  11.4 °C 51.4 °F /  10.8 °C 29.63in /  1003.3hPa SSW 2mph /  3.2km/h 5mph /  8km/h 96% 0.00in /  0mm 132 W/m2
10:24 52.6 °F /  11.4 °C 51.5 °F /  10.8 °C 29.63in /  1003.3hPa SSW 0.4mph /  0.6km/h 4mph /  6.4km/h 96% 0.00in /  0mm 155 W/m2
10:29 53 °F /  11.7 °C 51.9 °F /  11.1 °C 29.63in /  1003.3hPa SSW 0.5mph /  0.8km/h 2mph /  3.2km/h 96% 0.00in /  0mm 234 W/m2
10:34 53.2 °F /  11.8 °C 52.2 °F /  11.2 °C 29.64in /  1003.6hPa SSW 0.6mph /  1km/h 3mph /  4.8km/h 96% 0.00in /  0mm 213 W/m2
10:39 53.1 °F /  11.7 °C 52.1 °F /  11.2 °C 29.64in /  1003.6hPa SSW 0.9mph /  1.4km/h 3mph /  4.8km/h 96% 0.00in /  0mm 193 W/m2
10:44 53.2 °F /  11.8 °C 52.2 °F /  11.2 °C 29.64in /  1003.6hPa SSW 0.5mph /  0.8km/h 3mph /  4.8km/h 96% 0.00in /  0mm 199 W/m2
10:49 53.3 °F /  11.8 °C 52.3 °F /  11.3 °C 29.64in /  1003.6hPa SSW 0.6mph /  1km/h 3mph /  4.8km/h 96% 0.00in /  0mm 146 W/m2
10:54 53.4 °F /  11.9 °C 52.3 °F /  11.3 °C 29.64in /  1003.6hPa SSW 1.9mph /  3.1km/h 5mph /  8km/h 96% 0.00in /  0mm 188 W/m2
10:59 53.4 °F /  11.9 °C 52.3 °F /  11.3 °C 29.64in /  1003.6hPa SSW 2.7mph /  4.3km/h 5mph /  8km/h 96% 0.00in /  0mm 169 W/m2
11:04 53.3 °F /  11.8 °C 52.3 °F /  11.3 °C 29.64in /  1003.6hPa SSW 2.4mph /  3.9km/h 6mph /  9.7km/h 96% 0.00in /  0mm 151 W/m2
11:09 53.3 °F /  11.8 °C 52.2 °F /  11.2 °C 29.64in /  1003.6hPa SSW 1.4mph /  2.3km/h 6mph /  9.7km/h 96% 0.00in /  0mm 156 W/m2
11:14 53.7 °F /  12.1 °C 52.6 °F /  11.4 °C 29.64in /  1003.6hPa SSW 0.1mph /  0.2km/h 2mph /  3.2km/h 96% 0.00in /  0mm 165 W/m2
11:19 53.8 °F /  12.1 °C 52.7 °F /  11.5 °C 29.64in /  1003.6hPa Calm   1mph /  1.6km/h 96% 0.00in /  0mm 172 W/m2
11:24 53.9 °F /  12.2 °C 52.8 °F /  11.6 °C 29.64in /  1003.6hPa SSW 0.9mph /  1.4km/h 3mph /  4.8km/h 96% 0.00in /  0mm 139 W/m2
11:29 53.9 °F /  12.2 °C 52.8 °F /  11.6 °C 29.64in /  1003.6hPa Calm   1mph /  1.6km/h 95.9% 0.00in /  0mm 132 W/m2
11:34 54 °F /  12.2 °C 52.5 °F /  11.4 °C 29.64in /  1003.6hPa SSW 0.9mph /  1.4km/h 3mph /  4.8km/h 95.2% 0.00in /  0mm 125 W/m2
11:39 54 °F /  12.2 °C 52.5 °F /  11.4 °C 29.64in /  1003.6hPa SSW 0.2mph /  0.3km/h 3mph /  4.8km/h 95% 0.00in /  0mm 111 W/m2
11:44 54.2 °F /  12.3 °C 52.8 °F /  11.6 °C 29.64in /  1003.6hPa SSW 0.4mph /  0.6km/h 2mph /  3.2km/h 95% 0.00in /  0mm 167 W/m2
11:49 54.6 °F /  12.6 °C 53.2 °F /  11.8 °C 29.64in /  1003.6hPa SSW 0.3mph /  0.5km/h 2mph /  3.2km/h 95% 0.00in /  0mm 253 W/m2
11:54 54.8 °F /  12.7 °C 53.3 °F /  11.8 °C 29.64in /  1003.6hPa SSW 0.1mph /  0.2km/h 2mph /  3.2km/h 95% 0.00in /  0mm 214 W/m2
11:59 55.1 °F /  12.8 °C 53.6 °F /  12 °C 29.64in /  1003.6hPa Calm   2mph /  3.2km/h 95% 0.00in /  0mm 190 W/m2
12:04 55.6 °F /  13.1 °C 54.1 °F /  12.3 °C 29.64in /  1003.6hPa SSW 0.4mph /  0.6km/h 2mph /  3.2km/h 95% 0.00in /  0mm 162 W/m2
12:09 55.8 °F /  13.2 °C 54.3 °F /  12.4 °C 29.64in /  1003.6hPa SSW 0.2mph /  0.3km/h 2mph /  3.2km/h 94.8% 0.00in /  0mm 162 W/m2
12:14 55.6 °F /  13.1 °C 54 °F /  12.2 °C 29.64in /  1003.6hPa SSW 2.9mph /  4.7km/h 5mph /  8km/h 94.1% 0.00in /  0mm 148 W/m2
12:19 56 °F /  13.3 °C 54.3 °F /  12.4 °C 29.64in /  1003.6hPa SSW 1.9mph /  3.1km/h 5mph /  8km/h 94% 0.00in /  0mm 568 W/m2
12:24 56.9 °F /  13.8 °C 54.8 °F /  12.7 °C 29.64in /  1003.6hPa SSW 0.8mph /  1.3km/h 4mph /  6.4km/h 92.8% 0.00in /  0mm 568 W/m2
12:29 57.6 °F /  14.2 °C 55.2 °F /  12.9 °C 29.64in /  1003.6hPa SSW 0.3mph /  0.5km/h 3mph /  4.8km/h 91.7% 0.00in /  0mm 527 W/m2
12:34 57.6 °F /  14.2 °C 54.7 °F /  12.6 °C 29.64in /  1003.6hPa SSW 0.5mph /  0.8km/h 2mph /  3.2km/h 90.2% 0.00in /  0mm 680 W/m2
12:39 57.8 °F /  14.3 °C 54.6 °F /  12.6 °C 29.64in /  1003.6hPa SSW 2.6mph /  4.2km/h 5mph /  8km/h 88.8% 0.00in /  0mm 647 W/m2
12:44 57.7 °F /  14.3 °C 54.1 °F /  12.3 °C 29.64in /  1003.6hPa SSW 2.7mph /  4.3km/h 6mph /  9.7km/h 87.2% 0.00in /  0mm 236 W/m2
12:49 57.6 °F /  14.2 °C 53.5 °F /  11.9 °C 29.64in /  1003.6hPa SSW 3.1mph /  5km/h 6mph /  9.7km/h 86.1% 0.00in /  0mm 183 W/m2
12:54 57.9 °F /  14.4 °C 53.8 °F /  12.1 °C 29.64in /  1003.6hPa SW 2.3mph /  3.7km/h 6mph /  9.7km/h 86% 0.00in /  0mm 541 W/m2
12:59 58.3 °F /  14.6 °C 53.9 °F /  12.2 °C 29.64in /  1003.6hPa SW 4.8mph /  7.7km/h 7mph /  11.3km/h 85.3% 0.00in /  0mm 496 W/m2
13:04 58.6 °F /  14.8 °C 54 °F /  12.2 °C 29.64in /  1003.6hPa SW 1.9mph /  3.1km/h 7mph /  11.3km/h 84.7% 0.00in /  0mm 490 W/m2
13:09 59.2 °F /  15.1 °C 54 °F /  12.2 °C 29.64in /  1003.6hPa SW 3.9mph /  6.3km/h 7mph /  11.3km/h 83.1% 0.00in /  0mm 520 W/m2
13:14 59.4 °F /  15.2 °C 53.7 °F /  12.1 °C 29.64in /  1003.6hPa SW 2.2mph /  3.5km/h 7mph /  11.3km/h 81.2% 0.00in /  0mm 515 W/m2
13:19 59.3 °F /  15.2 °C 52.7 °F /  11.5 °C 29.64in /  1003.6hPa SW 4.7mph /  7.6km/h 9mph /  14.5km/h 78.7% 0.00in /  0mm 494 W/m2
13:24 59.5 °F /  15.3 °C 53.1 °F /  11.7 °C 29.64in /  1003.6hPa SW 4.4mph /  7.1km/h 9mph /  14.5km/h 79.1% 0.00in /  0mm 501 W/m2
13:29 59.5 °F /  15.3 °C 52.8 °F /  11.6 °C 29.63in /  1003.3hPa SW 4.2mph /  6.8km/h 8mph /  12.9km/h 78.5% 0.00in /  0mm 501 W/m2
13:34 59.4 °F /  15.2 °C 52.3 °F /  11.3 °C 29.63in /  1003.3hPa SSW 5.4mph /  8.7km/h 9mph /  14.5km/h 77.2% 0.00in /  0mm 494 W/m2
13:39 59.8 °F /  15.4 °C 52.9 °F /  11.6 °C 29.63in /  1003.3hPa SW 2.4mph /  3.9km/h 9mph /  14.5km/h 77.6% 0.00in /  0mm 494 W/m2
13:44 60.4 °F /  15.8 °C 52.8 °F /  11.6 °C 29.63in /  1003.3hPa WSW 4.3mph /  6.9km/h 9mph /  14.5km/h 76.1% 0.00in /  0mm 487 W/m2
13:49 60.4 °F /  15.8 °C 52.8 °F /  11.6 °C 29.63in /  1003.3hPa SW 1.9mph /  3.1km/h 6mph /  9.7km/h 75.8% 0.00in /  0mm 497 W/m2
13:54 60.1 °F /  15.6 °C 52.4 °F /  11.3 °C 29.63in /  1003.3hPa WSW 3mph /  4.8km/h 9mph /  14.5km/h 75.7% 0.00in /  0mm 545 W/m2
13:59 60.6 °F /  15.9 °C 53.3 °F /  11.8 °C 29.63in /  1003.3hPa WSW 2.4mph /  3.9km/h 7mph /  11.3km/h 76.7% 0.00in /  0mm 548 W/m2
14:04 60.4 °F /  15.8 °C 52.3 °F /  11.3 °C 29.63in /  1003.3hPa SW 3.4mph /  5.5km/h 7mph /  11.3km/h 74.4% 0.00in /  0mm 559 W/m2
14:09 60.7 °F /  15.9 °C 52.6 °F /  11.4 °C 29.63in /  1003.3hPa SW 2.9mph /  4.7km/h 7mph /  11.3km/h 74.5% 0.00in /  0mm 533 W/m2
14:14 60.9 °F /  16.1 °C 52.6 °F /  11.4 °C 29.63in /  1003.3hPa WSW 5mph /  8km/h 10mph /  16.1km/h 73.9% 0.00in /  0mm 483 W/m2
14:19 60.4 °F /  15.8 °C 51.9 °F /  11.1 °C 29.63in /  1003.3hPa SW 3.8mph /  6.1km/h 8mph /  12.9km/h 73.3% 0.00in /  0mm 578 W/m2
14:24 60.9 °F /  16.1 °C 52.3 °F /  11.3 °C 29.63in /  1003.3hPa WSW 5.8mph /  9.3km/h 12mph /  19.3km/h 73.3% 0.00in /  0mm 545 W/m2
14:29 61 °F /  16.1 °C 51.8 °F /  11 °C 29.63in /  1003.3hPa WSW 4.7mph /  7.6km/h 12mph /  19.3km/h 71.8% 0.00in /  0mm 508 W/m2
14:34 60.8 °F /  16 °C 51.3 °F /  10.7 °C 29.63in /  1003.3hPa SW 5.3mph /  8.5km/h 12mph /  19.3km/h 71.1% 0.00in /  0mm 489 W/m2
14:39 61 °F /  16.1 °C 51.9 °F /  11.1 °C 29.63in /  1003.3hPa SW 4.4mph /  7.1km/h 10mph /  16.1km/h 71.9% 0.00in /  0mm 466 W/m2
14:44 61 °F /  16.1 °C 51.9 °F /  11.1 °C 29.63in /  1003.3hPa WSW 4.7mph /  7.6km/h 10mph /  16.1km/h 72% 0.00in /  0mm 441 W/m2
14:49 61.2 °F /  16.2 °C 52 °F /  11.1 °C 29.63in /  1003.3hPa WSW 3.9mph /  6.3km/h 8mph /  12.9km/h 71.7% 0.00in /  0mm 438 W/m2
14:54 61.7 °F /  16.5 °C 52.1 °F /  11.2 °C 29.63in /  1003.3hPa SW 3.6mph /  5.8km/h 8mph /  12.9km/h 70.7% 0.00in /  0mm 418 W/m2
14:59 61.4 °F /  16.3 °C 51.6 °F /  10.9 °C 29.63in /  1003.3hPa WSW 3.5mph /  5.6km/h 8mph /  12.9km/h 70.1% 0.00in /  0mm 411 W/m2
15:04 61.4 °F /  16.3 °C 51.9 °F /  11.1 °C 29.63in /  1003.3hPa WSW 4mph /  6.4km/h 8mph /  12.9km/h 70.9% 0.00in /  0mm 406 W/m2
15:09 61.3 °F /  16.3 °C 51.5 °F /  10.8 °C 29.63in /  1003.3hPa SW 6.1mph /  9.8km/h 11mph /  17.7km/h 70.1% 0.00in /  0mm 403 W/m2
15:14 61.2 °F /  16.2 °C 51.2 °F /  10.7 °C 29.63in /  1003.3hPa WSW 5.4mph /  8.7km/h 10mph /  16.1km/h 69.8% 0.00in /  0mm 401 W/m2
15:19 61.1 °F /  16.2 °C 51.5 °F /  10.8 °C 29.63in /  1003.3hPa SW 4.7mph /  7.6km/h 9mph /  14.5km/h 71% 0.00in /  0mm 439 W/m2
15:24 61.1 °F /  16.2 °C 51.6 °F /  10.9 °C 29.63in /  1003.3hPa SW 6.4mph /  10.3km/h 13mph /  20.9km/h 71.3% 0.00in /  0mm 466 W/m2
15:29 61.2 °F /  16.2 °C 51.8 °F /  11 °C 29.63in /  1003.3hPa SW 3.8mph /  6.1km/h 9mph /  14.5km/h 71.4% 0.00in /  0mm 427 W/m2
15:34 61.3 °F /  16.3 °C 51.9 °F /  11.1 °C 29.63in /  1003.3hPa SW 3.9mph /  6.3km/h 9mph /  14.5km/h 71.3% 0.00in /  0mm 362 W/m2
15:39 61.7 °F /  16.5 °C 52.5 °F /  11.4 °C 29.63in /  1003.3hPa WSW 5mph /  8km/h 11mph /  17.7km/h 72% 0.00in /  0mm 360 W/m2
15:44 61.5 °F /  16.4 °C 52 °F /  11.1 °C 29.63in /  1003.3hPa WSW 5.7mph /  9.2km/h 11mph /  17.7km/h 71.1% 0.00in /  0mm 355 W/m2
15:49 61.5 °F /  16.4 °C 52 °F /  11.1 °C 29.63in /  1003.3hPa WSW 5.2mph /  8.4km/h 10mph /  16.1km/h 71% 0.00in /  0mm 355 W/m2
15:54 61.5 °F /  16.4 °C 52.1 °F /  11.2 °C 29.63in /  1003.3hPa WSW 4.2mph /  6.8km/h 9mph /  14.5km/h 71.2% 0.00in /  0mm 345 W/m2
15:59 62 °F /  16.7 °C 52.4 °F /  11.3 °C 29.63in /  1003.3hPa SW 3.2mph /  5.1km/h 7mph /  11.3km/h 70.9% 0.00in /  0mm 338 W/m2
16:04 62.1 °F /  16.7 °C 52.2 °F /  11.2 °C 29.63in /  1003.3hPa WSW 4.1mph /  6.6km/h 9mph /  14.5km/h 70% 0.00in /  0mm 309 W/m2
16:09 61.6 °F /  16.4 °C 52 °F /  11.1 °C 29.63in /  1003.3hPa WSW 2.4mph /  3.9km/h 7mph /  11.3km/h 70.6% 0.00in /  0mm 304 W/m2
16:14 62 °F /  16.7 °C 52.8 °F /  11.6 °C 29.62in /  1002.9hPa WSW 2.9mph /  4.7km/h 9mph /  14.5km/h 72% 0.00in /  0mm 322 W/m2
16:19 62.2 °F /  16.8 °C 52.9 °F /  11.6 °C 29.63in /  1003.3hPa SW 2.5mph /  4km/h 6mph /  9.7km/h 71.5% 0.00in /  0mm 288 W/m2
16:24 61.8 °F /  16.6 °C 52 °F /  11.1 °C 29.63in /  1003.3hPa SW 4.7mph /  7.6km/h 9mph /  14.5km/h 70.3% 0.00in /  0mm 93 W/m2
16:29 61.3 °F /  16.3 °C 51.7 °F /  10.9 °C 29.63in /  1003.3hPa SW 5.4mph /  8.7km/h 11mph /  17.7km/h 71% 0.00in /  0mm 292 W/m2
16:34 61.5 °F /  16.4 °C 52 °F /  11.1 °C 29.63in /  1003.3hPa WSW 4.4mph /  7.1km/h 8mph /  12.9km/h 71% 0.00in /  0mm 297 W/m2
16:39 61.8 °F /  16.6 °C 52.2 °F /  11.2 °C 29.63in /  1003.3hPa WSW 4.5mph /  7.2km/h 8mph /  12.9km/h 70.8% 0.00in /  0mm 236 W/m2
16:44 61.4 °F /  16.3 °C 51.9 °F /  11.1 °C 29.63in /  1003.3hPa SW 3.5mph /  5.6km/h 8mph /  12.9km/h 71% 0.00in /  0mm 81 W/m2
16:49 61.1 °F /  16.2 °C 51.8 °F /  11 °C 29.63in /  1003.3hPa WSW 5.5mph /  8.9km/h 9mph /  14.5km/h 71.7% 0.00in /  0mm 81 W/m2
16:54 60.7 °F /  15.9 °C 51.7 °F /  10.9 °C 29.63in /  1003.3hPa WSW 5.4mph /  8.7km/h 10mph /  16.1km/h 72% 0.00in /  0mm 40 W/m2
16:59 60.4 °F /  15.8 °C 51.5 °F /  10.8 °C 29.63in /  1003.3hPa SW 2.6mph /  4.2km/h 9mph /  14.5km/h 72.3% 0.00in /  0mm 32 W/m2
17:04 60.3 °F /  15.7 °C 51.7 °F /  10.9 °C 29.63in /  1003.3hPa SW 4.1mph /  6.6km/h 9mph /  14.5km/h 73% 0.00in /  0mm 40 W/m2
17:09 60.1 °F /  15.6 °C 51.6 °F /  10.9 °C 29.63in /  1003.3hPa WSW 6.5mph /  10.5km/h 10mph /  16.1km/h 73.4% 0.00in /  0mm 62 W/m2
17:14 59.8 °F /  15.4 °C 51.8 °F /  11 °C 29.64in /  1003.6hPa West 6.7mph /  10.8km/h 11mph /  17.7km/h 74.7% 0.00in /  0mm 42 W/m2
17:19 59.1 °F /  15.1 °C 51.9 °F /  11.1 °C 29.64in /  1003.6hPa WNW 10.4mph /  16.7km/h 15mph /  24.1km/h 77% 0.00in /  0mm 23 W/m2
17:24 58.2 °F /  14.6 °C 51.7 °F /  10.9 °C 29.64in /  1003.6hPa WNW 6.8mph /  10.9km/h 15mph /  24.1km/h 79.1% 0.00in /  0mm 16 W/m2
17:29 57.8 °F /  14.3 °C 52.1 °F /  11.2 °C 29.64in /  1003.6hPa West 6.7mph /  10.8km/h 15mph /  24.1km/h 81.2% 0.00in /  0mm 28 W/m2
17:34 57.2 °F /  14 °C 52.1 °F /  11.2 °C 29.65in /  1003.9hPa West 6.7mph /  10.8km/h 15mph /  24.1km/h 82.8% 0.00in /  0mm 49 W/m2
17:39 56.7 °F /  13.7 °C 52 °F /  11.1 °C 29.65in /  1003.9hPa WNW 5mph /  8km/h 10mph /  16.1km/h 84.5% 0.00in /  0mm 30 W/m2
17:44 56.3 °F /  13.5 °C 52.1 °F /  11.2 °C 29.65in /  1003.9hPa WNW 3.8mph /  6.1km/h 10mph /  16.1km/h 85.8% 0.00in /  0mm 28 W/m2
17:49 56.1 °F /  13.4 °C 52.2 °F /  11.2 °C 29.65in /  1003.9hPa West 2.2mph /  3.5km/h 6mph /  9.7km/h 86.6% 0.00in /  0mm 23 W/m2
17:54 56 °F /  13.3 °C 52.2 °F /  11.2 °C 29.65in /  1003.9hPa West 1.8mph /  2.9km/h 5mph /  8km/h 87% 0.00in /  0mm 16 W/m2
17:59 55.9 °F /  13.3 °C 52.3 °F /  11.3 °C 29.65in /  1003.9hPa West 1.8mph /  2.9km/h 6mph /  9.7km/h 87.4% 0.00in /  0mm 12 W/m2
18:04 55.8 °F /  13.2 °C 52.3 °F /  11.3 °C 29.65in /  1003.9hPa West 3.1mph /  5km/h 6mph /  9.7km/h 88% 0.00in /  0mm 9 W/m2
18:09 55.7 °F /  13.2 °C 52.2 °F /  11.2 °C 29.65in /  1003.9hPa West 1.4mph /  2.3km/h 5mph /  8km/h 88% 0.00in /  0mm 7 W/m2
18:14 55.6 °F /  13.1 °C 52.2 °F /  11.2 °C 29.65in /  1003.9hPa West 2.1mph /  3.4km/h 6mph /  9.7km/h 88.1% 0.00in /  0mm 7 W/m2
18:19 55.5 °F /  13.1 °C 52.1 °F /  11.2 °C 29.65in /  1003.9hPa West 2mph /  3.2km/h 6mph /  9.7km/h 88.2% 0.00in /  0mm 0 W/m2
18:24 55.5 °F /  13.1 °C 52.2 °F /  11.2 °C 29.65in /  1003.9hPa West 1.1mph /  1.8km/h 4mph /  6.4km/h 88.7% 0.00in /  0mm 0 W/m2
18:29 55.4 °F /  13 °C 52.2 °F /  11.2 °C 29.66in /  1004.3hPa West 2.6mph /  4.2km/h 5mph /  8km/h 89% 0.00in /  0mm 0 W/m2
18:34 55.4 °F /  13 °C 52.2 °F /  11.2 °C 29.66in /  1004.3hPa West 0.6mph /  1km/h 5mph /  8km/h 89% 0.00in /  0mm 0 W/m2
18:39 55.2 °F /  12.9 °C 52 °F /  11.1 °C 29.65in /  1003.9hPa West 0.7mph /  1.1km/h 4mph /  6.4km/h 89% 0.00in /  0mm 0 W/m2
18:44 55.1 °F /  12.8 °C 51.9 °F /  11.1 °C 29.66in /  1004.3hPa West 1.1mph /  1.8km/h 4mph /  6.4km/h 89% 0.00in /  0mm 0 W/m2
18:49 55 °F /  12.8 °C 51.8 °F /  11 °C 29.66in /  1004.3hPa West 0.4mph /  0.6km/h 2mph /  3.2km/h 89% 0.00in /  0mm 0 W/m2
18:54 55 °F /  12.8 °C 51.7 °F /  10.9 °C 29.66in /  1004.3hPa Calm   2mph /  3.2km/h 89% 0.00in /  0mm 0 W/m2
18:59 54.9 °F /  12.7 °C 51.6 °F /  10.9 °C 29.66in /  1004.3hPa Calm   2mph /  3.2km/h 89% 0.00in /  0mm 0 W/m2
19:04 54.9 °F /  12.7 °C 51.6 °F /  10.9 °C 29.66in /  1004.3hPa Calm   2mph /  3.2km/h 89% 0.00in /  0mm 0 W/m2
19:09 54.9 °F /  12.7 °C 51.6 °F /  10.9 °C 29.66in /  1004.3hPa Calm     89% 0.00in /  0mm 0 W/m2
19:14 54.7 °F /  12.6 °C 51.7 °F /  10.9 °C 29.66in /  1004.3hPa Calm     89.8% 0.00in /  0mm 0 W/m2
19:19 54.5 °F /  12.5 °C 51.6 °F /  10.9 °C 29.66in /  1004.3hPa Calm     90% 0.00in /  0mm 0 W/m2
19:24 54.2 °F /  12.3 °C 51.3 °F /  10.7 °C 29.66in /  1004.3hPa Calm     90% 0.00in /  0mm 0 W/m2
19:29 54 °F /  12.2 °C 51.1 °F /  10.6 °C 29.66in /  1004.3hPa Calm     90% 0.00in /  0mm 0 W/m2
19:34 53.9 °F /  12.2 °C 51 °F /  10.6 °C 29.66in /  1004.3hPa Calm     90% 0.00in /  0mm 0 W/m2
19:39 53.6 °F /  12 °C 50.7 °F /  10.4 °C 29.66in /  1004.3hPa Calm     90% 0.00in /  0mm 0 W/m2
19:44 53.3 °F /  11.8 °C 50.5 °F /  10.3 °C 29.66in /  1004.3hPa Calm     90% 0.00in /  0mm 0 W/m2
19:49 53.1 °F /  11.7 °C 50.3 °F /  10.2 °C 29.66in /  1004.3hPa Calm     90% 0.00in /  0mm 0 W/m2
19:54 52.9 °F /  11.6 °C 50.1 °F /  10.1 °C 29.66in /  1004.3hPa Calm     90.3% 0.00in /  0mm 0 W/m2
19:59 52.6 °F /  11.4 °C 50.1 °F /  10.1 °C 29.66in /  1004.3hPa Calm     91% 0.00in /  0mm 0 W/m2
20:04 52.3 °F /  11.3 °C 49.8 °F /  9.9 °C 29.66in /  1004.3hPa Calm     91% 0.00in /  0mm 0 W/m2
20:09 52.2 °F /  11.2 °C 49.6 °F /  9.8 °C 29.66in /  1004.3hPa West 0.2mph /  0.3km/h 1mph /  1.6km/h 91% 0.00in /  0mm 0 W/m2
20:14 52 °F /  11.1 °C 49.5 °F /  9.7 °C 29.65in /  1003.9hPa Calm   1mph /  1.6km/h 91% 0.00in /  0mm 0 W/m2
20:19 51.9 °F /  11.1 °C 49.4 °F /  9.7 °C 29.65in /  1003.9hPa Calm   1mph /  1.6km/h 91% 0.00in /  0mm 0 W/m2
20:24 51.6 °F /  10.9 °C 49.1 °F /  9.5 °C 29.66in /  1004.3hPa Calm     91% 0.00in /  0mm 0 W/m2
20:29 51.5 °F /  10.8 °C 49.1 °F /  9.5 °C 29.66in /  1004.3hPa Calm     91.3% 0.00in /  0mm 0 W/m2
20:34 51.3 °F /  10.7 °C 49.1 °F /  9.5 °C 29.66in /  1004.3hPa Calm     91.9% 0.00in /  0mm 0 W/m2
20:39 51.3 °F /  10.7 °C 49.1 °F /  9.5 °C 29.66in /  1004.3hPa West 0.1mph /  0.2km/h 1mph /  1.6km/h 92% 0.00in /  0mm 0 W/m2
20:44 51.1 °F /  10.6 °C 48.9 °F /  9.4 °C 29.66in /  1004.3hPa West 0.1mph /  0.2km/h 1mph /  1.6km/h 92% 0.00in /  0mm 0 W/m2
20:49 51.1 °F /  10.6 °C 48.9 °F /  9.4 °C 29.65in /  1003.9hPa West 0.1mph /  0.2km/h 2mph /  3.2km/h 92% 0.00in /  0mm 0 W/m2
20:54 51.1 °F /  10.6 °C 48.9 °F /  9.4 °C 29.65in /  1003.9hPa West 0.1mph /  0.2km/h 2mph /  3.2km/h 92% 0.00in /  0mm 0 W/m2
20:59 51.1 °F /  10.6 °C 48.9 °F /  9.4 °C 29.66in /  1004.3hPa Calm   1mph /  1.6km/h 92% 0.00in /  0mm 0 W/m2
21:04 50.9 °F /  10.5 °C 48.7 °F /  9.3 °C 29.65in /  1003.9hPa Calm   1mph /  1.6km/h 92% 0.00in /  0mm 0 W/m2
21:09 50.9 °F /  10.5 °C 48.7 °F /  9.3 °C 29.65in /  1003.9hPa Calm     92% 0.00in /  0mm 0 W/m2
21:14 50.9 °F /  10.5 °C 48.7 °F /  9.3 °C 29.65in /  1003.9hPa Calm     92% 0.00in /  0mm 0 W/m2
21:19 51 °F /  10.6 °C 48.8 °F /  9.3 °C 29.65in /  1003.9hPa West 0.2mph /  0.3km/h 1mph /  1.6km/h 92% 0.00in /  0mm 0 W/m2
21:24 50.7 °F /  10.4 °C 48.6 °F /  9.2 °C 29.65in /  1003.9hPa West 0.1mph /  0.2km/h 1mph /  1.6km/h 92% 0.00in /  0mm 0 W/m2
21:29 50.7 °F /  10.4 °C 48.6 °F /  9.2 °C 29.65in /  1003.9hPa West 0.2mph /  0.3km/h 2mph /  3.2km/h 92% 0.00in /  0mm 0 W/m2
21:34 50.5 °F /  10.3 °C 48.4 °F /  9.1 °C 29.65in /  1003.9hPa Calm   2mph /  3.2km/h 92% 0.00in /  0mm 0 W/m2
21:39 50.5 °F /  10.3 °C 48.4 °F /  9.1 °C 29.65in /  1003.9hPa West 0.5mph /  0.8km/h 3mph /  4.8km/h 92% 0.00in /  0mm 0 W/m2
21:44 50.7 °F /  10.4 °C 48.6 °F /  9.2 °C 29.65in /  1003.9hPa West 0.3mph /  0.5km/h 3mph /  4.8km/h 92% 0.00in /  0mm 0 W/m2
21:49 50.7 °F /  10.4 °C 48.6 °F /  9.2 °C 29.65in /  1003.9hPa West 0.1mph /  0.2km/h 3mph /  4.8km/h 92% 0.00in /  0mm 0 W/m2
21:54 50.7 °F /  10.4 °C 48.6 °F /  9.2 °C 29.65in /  1003.9hPa Calm     92% 0.00in /  0mm 0 W/m2
21:59 50.8 °F /  10.4 °C 48.6 °F /  9.2 °C 29.65in /  1003.9hPa West 0.5mph /  0.8km/h 2mph /  3.2km/h 92% 0.00in /  0mm 0 W/m2
22:04 51 °F /  10.6 °C 48.8 °F /  9.3 °C 29.65in /  1003.9hPa WSW 1.1mph /  1.8km/h 3mph /  4.8km/h 92% 0.00in /  0mm 0 W/m2
22:09 51.1 °F /  10.6 °C 48.9 °F /  9.4 °C 29.65in /  1003.9hPa South 0.7mph /  1.1km/h 4mph /  6.4km/h 92% 0.00in /  0mm 0 W/m2
22:14 51.1 °F /  10.6 °C 48.9 °F /  9.4 °C 29.64in /  1003.6hPa South 0.1mph /  0.2km/h 3mph /  4.8km/h 92% 0.00in /  0mm 0 W/m2
22:19 51.3 °F /  10.7 °C 49.1 °F /  9.5 °C 29.64in /  1003.6hPa South 0.4mph /  0.6km/h 2mph /  3.2km/h 92% 0.00in /  0mm 0 W/m2
22:24 51.3 °F /  10.7 °C 49.1 °F /  9.5 °C 29.64in /  1003.6hPa South 1.7mph /  2.7km/h 4mph /  6.4km/h 92% 0.00in /  0mm 0 W/m2
22:29 51.3 °F /  10.7 °C 49.1 °F /  9.5 °C 29.64in /  1003.6hPa South 0.6mph /  1km/h 4mph /  6.4km/h 92% 0.00in /  0mm 0 W/m2
22:34 51.4 °F /  10.8 °C 49.3 °F /  9.6 °C 29.64in /  1003.6hPa South 0.5mph /  0.8km/h 3mph /  4.8km/h 92% 0.00in /  0mm 0 W/m2
22:39 51.5 °F /  10.8 °C 49.4 °F /  9.7 °C 29.64in /  1003.6hPa South 1.5mph /  2.4km/h 3mph /  4.8km/h 92% 0.00in /  0mm 0 W/m2
22:44 51.8 °F /  11 °C 49.6 °F /  9.8 °C 29.63in /  1003.3hPa SSE 3.1mph /  5km/h 6mph /  9.7km/h 92% 0.00in /  0mm 0 W/m2
22:49 52.2 °F /  11.2 °C 49.8 °F /  9.9 °C 29.63in /  1003.3hPa SSE 3.1mph /  5km/h 9mph /  14.5km/h 92% 0.00in /  0mm 0 W/m2
22:54 52.3 °F /  11.3 °C 49.8 °F /  9.9 °C 29.63in /  1003.3hPa South 1.8mph /  2.9km/h 6mph /  9.7km/h 91.1% 0.00in /  0mm 0 W/m2
22:59 52.6 °F /  11.4 °C 50.1 °F /  10.1 °C 29.63in /  1003.3hPa SSE 2.4mph /  3.9km/h 7mph /  11.3km/h 91% 0.00in /  0mm 0 W/m2
23:04 52.9 °F /  11.6 °C 50.3 °F /  10.2 °C 29.63in /  1003.3hPa SSE 4.4mph /  7.1km/h 8mph /  12.9km/h 91% 0.00in /  0mm 0 W/m2
23:09 53.2 °F /  11.8 °C 50.6 °F /  10.3 °C 29.62in /  1002.9hPa SSE 4.7mph /  7.6km/h 9mph /  14.5km/h 91% 0.00in /  0mm 0 W/m2
23:14 53.4 °F /  11.9 °C 50.5 °F /  10.3 °C 29.62in /  1002.9hPa SSE 4.4mph /  7.1km/h 9mph /  14.5km/h 90% 0.00in /  0mm 0 W/m2
23:19 53.6 °F /  12 °C 50.7 °F /  10.4 °C 29.62in /  1002.9hPa SE 3.3mph /  5.3km/h 8mph /  12.9km/h 90% 0.00in /  0mm 0 W/m2
23:24 53.8 °F /  12.1 °C 50.9 °F /  10.5 °C 29.62in /  1002.9hPa SE 1.4mph /  2.3km/h 7mph /  11.3km/h 90% 0.00in /  0mm 0 W/m2
23:29 53.8 °F /  12.1 °C 50.9 °F /  10.5 °C 29.62in /  1002.9hPa SE 3.3mph /  5.3km/h 8mph /  12.9km/h 90% 0.00in /  0mm 0 W/m2
23:34 53.8 °F /  12.1 °C 50.9 °F /  10.5 °C 29.61in /  1002.6hPa SSE 2.7mph /  4.3km/h 6mph /  9.7km/h 90% 0.00in /  0mm 0 W/m2
23:39 53.8 °F /  12.1 °C 50.9 °F /  10.5 °C 29.61in /  1002.6hPa SE 3.8mph /  6.1km/h 9mph /  14.5km/h 90% 0.00in /  0mm 0 W/m2
23:44 54 °F /  12.2 °C 50.8 °F /  10.4 °C 29.61in /  1002.6hPa SSE 3.1mph /  5km/h 8mph /  12.9km/h 89.3% 0.00in /  0mm 0 W/m2
23:49 54.1 °F /  12.3 °C 50.8 °F /  10.4 °C 29.61in /  1002.6hPa SSE 2.9mph /  4.7km/h 6mph /  9.7km/h 89% 0.00in /  0mm 0 W/m2
23:54 54.2 °F /  12.3 °C 51.3 °F /  10.7 °C 29.61in /  1002.6hPa SSE 2.8mph /  4.5km/h 6mph /  9.7km/h 89.8% 0.00in /  0mm 0 W/m2
23:59 54.3 °F /  12.4 °C 51.4 °F /  10.8 °C 29.60in /  1002.3hPa SSE 1.8mph /  2.9km/h 5mph /  8km/h 90% 0.00in /  0mm 0 W/m2
Bath Spa Weather
Compliments of Weather Underground - 2 mb